Meteo Giornale » Osservazioni meteo Slovacchia » Piestany

ore: 22:30 - Osservazioni Meteo Piestany
Lat. 48° 37' N Lon. 17° 49' E Alt. 163 metri s.l.m.

sereno

15 °C

Sereno

Temp. 24 Ore

15 °C

27 °C

Nord

1.8 Km/h

Dew point 8 °C

Umidità 62 %

Visibilità  10 Km

Il sole sorge alle ore 06:05

Il sole tramonta alle ore 19:31

Data e Ora Cielo e Fenomeni T °C DP °C Um. % Pres. hPa Vis. km Vento km/h
Oggi h: 22:30 sereno Sereno 15 8 62 1021 10 N 1.8
Oggi h: 22:00 sereno Sereno 16 10 67 1020 10 N 5.5
Oggi h: 21:30 sereno Sereno 17 10 63 1020 10 N 5.5
Oggi h: 21:00 sereno Sereno 19 10 55 1020 10 N 3.7
Oggi h: 20:30 sereno Sereno 21 9 46 1020 10 N/NE 11.1
Oggi h: 20:00 sereno Sereno 21 9 46 1019 10 N 9.3
Oggi h: 19:30 sereno Sereno 23 9 40 1019 10 N 14.8
Oggi h: 19:00 sereno Sereno 24 9 38 1019 10 N 14.8
Oggi h: 18:30 sereno Sereno 25 8 33 1019 10 N/NO 18.5
Oggi h: 18:00 sereno Sereno 26 8 31 1019 10 NO 18.5
Oggi h: 17:30 sereno Sereno 26 8 31 1019 10 NO 24
Oggi h: 17:00 sereno Sereno 27 8 30 1019 10 N/NO 20.3
Oggi h: 16:30 sereno Sereno 27 8 30 1019 10 N/NO 18.5
Oggi h: 16:00 sereno Sereno 26 9 34 1019 10 NO 16.7
Oggi h: 15:30 sereno Sereno 26 9 34 1019 10 O/NO 20.3
Oggi h: 15:00 sereno Sereno 25 9 36 1019 10 N/NO 20.3
Oggi h: 14:30 sereno Sereno 25 10 38 1019 10 O/NO 16.7
Oggi h: 14:00 sereno Sereno 26 9 34 1020 10 NO 18.5
Oggi h: 13:30 sereno Sereno 25 9 36 1020 10 N/NO 22.2
Oggi h: 13:00 sereno Sereno 26 10 36 1020 10 O/NO 25.9
Oggi h: 12:30 sereno Sereno 24 10 41 1020 10 NO 22.2
Oggi h: 12:00 sereno Sereno 24 11 43 1020 10 NO 24
Oggi h: 11:30 poco_nuvoloso Poco Nuvoloso 24 10 41 1020 10 N 24
Oggi h: 11:00 poco_nuvoloso Poco Nuvoloso 24 10 41 1020 10 N/NO 22.2
Oggi h: 10:30 poco_nuvoloso Poco Nuvoloso 24 10 41 1020 10 NO 24
Oggi h: 10:00 poco_nuvoloso Poco Nuvoloso 23 11 46 1020 10 NO 24
Oggi h: 09:30 sereno Sereno 23 11 46 1020 10 NO 18.5
Oggi h: 09:00 sereno Sereno 21 11 52 1019 10 NO 14.8
Oggi h: 08:30 sereno Sereno 21 11 52 1019 10 NO 18.5
Oggi h: 08:00 sereno Sereno 20 12 59 1019 10 NO 20.3
Oggi h: 07:30 sereno Sereno 19 13 68 1019 10 NO 14.8
Oggi h: 07:00 sereno Sereno 16 13 82 1019 10 N 5.5
Oggi h: 06:30 sereno Sereno 15 13 87 1018 10 N 3.7
Oggi h: 06:00 sereno Sereno 16 12 77 1018 10 N 5.5
Oggi h: 05:30 sereno Sereno 17 13 77 1018 10 N 5.5
Oggi h: 05:00 sereno Sereno 16 13 82 1018 10 N/NO 7.4
Oggi h: 04:30 sereno Sereno 17 13 77 1018 10 N 3.7
Oggi h: 04:00 sereno Sereno 18 14 77 1017 10 N 1.8
Oggi h: 03:30 sereno Sereno 19 15 77 1018 10 N 3.7
Oggi h: 03:00 sereno Sereno 19 15 77 1018 10 N 0
Oggi h: 02:30 sereno Sereno 20 15 72 1017 10 N 5.5
Oggi h: 02:00 sereno Sereno 20 16 77 1017 10 N 3.7
Oggi h: 01:30 sereno Sereno 20 16 77 1018 10 N 1.8
Oggi h: 01:00 sereno Sereno 19 16 82 1018 10 N/NO 7.4
Oggi h: 00:30 sereno Sereno 20 16 77 1018 10 N 5.5
Oggi h: 00:00 sereno Sereno 20 15 72 1018 10 O/SO 7.4
Ieri h: 23:30 sereno Sereno 20 15 72 1017 10 N 1.8
Ieri h: 23:00 sereno Sereno 20 15 72 1016 10 N 5.5